Time;durP1;ratioP1;P1;durP2;ratioP2;P2;SDS_P1;SDS_P2;PMS_P1;PMS_P2;Temp;Humidity;BMP_temperature;BMP_pressure;BME280_temperature;BME280_humidity;BME280_pressure;Samples;Min_cycle;Max_cycle;Signal;HPM_P1;HPM_P2
2022/07/03 00:00:33;;;;;;;10.82;8.95;;;;;;;19.08;80.88;96014.70;1779191;81;20964;-65
2022/07/03 00:03:01;;;;;;;10.00;8.70;;;;;;;19.05;81.24;96007.27;1778902;81;21093;-65
2022/07/03 00:05:28;;;;;;;13.08;9.13;;;;;;;19.12;81.17;96013.59;1779599;80;21030;-65
2022/07/03 00:07:55;;;;;;;9.65;8.65;;;;;;;19.04;81.21;96010.41;1779540;80;21437;-65
2022/07/03 00:10:22;;;;;;;9.75;8.75;;;;;;;18.99;81.00;96009.28;1779169;80;21062;-65
2022/07/03 00:12:48;;;;;;;9.73;8.33;;;;;;;18.89;81.42;96010.62;1779631;81;20976;-65
2022/07/03 00:15:15;;;;;;;10.18;8.63;;;;;;;18.85;81.32;96008.16;1779461;81;21552;-65
2022/07/03 00:17:42;;;;;;;9.70;7.15;;;;;;;18.81;81.21;96004.29;1779184;81;21035;-65
2022/07/03 00:20:10;;;;;;;9.45;8.20;;;;;;;18.85;80.95;96005.48;1779265;81;21023;-65
2022/07/03 00:22:42;;;;;;;9.73;8.53;;;;;;;18.73;81.49;96003.73;1779594;81;20994;-65
2022/07/03 00:25:12;;;;;;;9.88;7.85;;;;;;;18.68;81.43;96000.88;1779401;81;20990;-65
2022/07/03 00:27:40;;;;;;;9.53;8.23;;;;;;;18.59;81.64;96008.33;1779331;81;20972;-65
2022/07/03 00:30:08;;;;;;;12.13;8.58;;;;;;;18.57;81.95;96006.22;1779635;81;21045;-65
2022/07/03 00:32:42;;;;;;;10.08;8.80;;;;;;;18.57;81.87;96009.34;1779288;81;21501;-65
2022/07/03 00:35:09;;;;;;;11.10;9.28;;;;;;;18.62;81.80;96006.47;1779575;81;20998;-65
2022/07/03 00:37:36;;;;;;;10.85;8.45;;;;;;;18.57;82.03;96008.89;1779261;81;21023;-65
2022/07/03 00:40:04;;;;;;;9.38;8.48;;;;;;;18.53;81.67;96003.74;1779417;80;20983;-65
2022/07/03 00:42:31;;;;;;;10.88;7.97;;;;;;;18.47;81.24;95999.98;1779417;80;21023;-65
2022/07/03 00:44:59;;;;;;;9.93;8.93;;;;;;;18.38;82.33;96005.27;1779489;81;20964;-65
2022/07/03 00:47:27;;;;;;;8.53;7.30;;;;;;;18.42;82.59;95997.53;1778996;81;20975;-65
2022/07/03 00:50:01;;;;;;;10.40;8.65;;;;;;;18.45;82.12;95996.06;1779709;81;21026;-65
2022/07/03 00:52:25;;;;;;;9.93;8.50;;;;;;;18.40;81.66;95991.86;1778400;81;21529;-65
2022/07/03 00:54:58;;;;;;;9.43;8.43;;;;;;;18.37;81.55;95990.19;1752107;81;21050;-65
2022/07/03 00:57:30;;;;;;;9.48;8.58;;;;;;;18.45;81.91;95986.71;1779642;80;21002;-65
2022/07/03 00:59:57;;;;;;;9.93;8.43;;;;;;;18.39;81.69;95990.97;1779341;81;20999;-65
2022/07/03 01:02:55;;;;;;;10.53;8.63;;;;;;;18.40;82.24;95991.86;1779026;80;21023;-65
2022/07/03 01:05:33;;;;;;;12.43;8.78;;;;;;;18.42;82.26;95990.86;1779584;80;21043;-65
2022/07/03 01:08:34;;;;;;;9.80;8.88;;;;;;;18.36;81.88;95995.11;1779229;81;21057;-65
2022/07/03 01:11:08;;;;;;;10.60;8.48;;;;;;;18.25;81.09;95988.03;1779692;81;20983;-65
2022/07/03 01:13:46;;;;;;;12.68;8.45;;;;;;;18.30;81.93;95987.38;1779564;80;21038;-65
2022/07/03 01:17:00;;;;;;;12.03;9.65;;;;;;;18.31;81.65;95979.75;1779494;81;21015;-65
2022/07/03 01:19:43;;;;;;;10.10;8.38;;;;;;;18.23;81.75;95985.42;1779556;80;21080;-65
2022/07/03 01:22:34;;;;;;;;;;;;;;;18.20;82.33;95985.56;1781936;81;21054;-65
2022/07/03 01:25:24;;;;;;;9.45;8.48;;;;;;;18.09;82.54;95979.34;1779644;81;20125;-65
2022/07/03 01:28:16;;;;;;;9.23;8.23;;;;;;;18.05;82.29;95977.72;1779184;81;21034;-65
2022/07/03 01:30:50;;;;;;;10.10;7.95;;;;;;;18.01;82.39;95984.58;1779647;81;21050;-65
2022/07/03 01:33:23;;;;;;;8.95;8.05;;;;;;;17.99;82.91;95990.45;1779350;81;21015;-65
2022/07/03 01:36:06;;;;;;;9.88;8.50;;;;;;;17.95;82.21;95988.38;1779433;80;21010;-65
2022/07/03 01:38:39;;;;;;;9.28;8.38;;;;;;;18.00;82.20;95991.73;1779706;81;21034;-65
2022/07/03 01:41:10;;;;;;;9.83;8.83;;;;;;;17.93;82.75;95999.11;1779225;81;20991;-65
2022/07/03 01:43:45;;;;;;;9.28;8.30;;;;;;;17.92;82.68;95993.86;1779447;81;20979;-65
2022/07/03 01:46:16;;;;;;;12.40;9.03;;;;;;;18.01;82.72;95984.11;1779666;81;20983;-65
2022/07/03 01:48:45;;;;;;;10.10;8.20;;;;;;;17.97;82.11;95991.86;1778849;81;21078;-65
2022/07/03 01:51:16;;;;;;;10.82;8.50;;;;;;;17.90;82.93;95990.38;1779461;81;20998;-65
2022/07/03 01:53:49;;;;;;;9.10;8.30;;;;;;;17.83;82.77;95991.08;1779361;80;20996;-65
2022/07/03 01:56:18;;;;;;;11.93;8.85;;;;;;;17.84;82.32;95992.84;1779732;80;21463;-65
2022/07/03 01:58:45;;;;;;;9.55;8.50;;;;;;;17.94;82.35;95994.63;1779428;81;20999;-65
2022/07/03 02:01:35;;;;;;;8.20;7.33;;;;;;;17.93;82.09;95995.11;1779433;80;21058;-65
2022/07/03 02:04:13;;;;;;;8.50;7.60;;;;;;;17.92;81.86;95996.05;1778853;80;21097;-65
2022/07/03 02:06:48;;;;;;;9.25;8.20;;;;;;;17.82;81.98;95992.50;1779615;80;21058;-65
2022/07/03 02:09:18;;;;;;;13.85;8.88;;;;;;;17.76;82.35;95995.36;1777124;81;20991;-65
2022/07/03 02:11:46;;;;;;;11.88;8.40;;;;;;;17.69;82.11;95992.95;1779313;81;21010;-65
2022/07/03 02:14:33;;;;;;;9.78;8.78;;;;;;;17.63;82.16;95993.18;1779388;81;20990;-65
2022/07/03 02:17:16;;;;;;;9.15;7.60;;;;;;;17.65;82.55;95993.13;1778312;81;20988;-65
2022/07/03 02:20:03;;;;;;;10.18;7.78;;;;;;;17.59;82.43;95990.69;1778421;81;21472;-65
2022/07/03 02:22:42;;;;;;;10.30;8.85;;;;;;;17.61;82.92;95991.03;1779667;80;21023;-65
2022/07/03 02:25:25;;;;;;;10.78;8.15;;;;;;;17.60;82.62;95993.78;1731607;81;21022;-65
2022/07/03 02:28:16;;;;;;;11.55;9.00;;;;;;;17.60;83.59;95989.78;1779006;81;21042;-65
2022/07/03 02:30:48;;;;;;;9.75;8.25;;;;;;;17.68;83.33;95994.34;1685091;85;21520;-65
2022/07/03 02:33:18;;;;;;;9.03;8.13;;;;;;;17.73;83.14;95988.34;1751855;81;20983;-65
2022/07/03 02:35:48;;;;;;;12.07;8.33;;;;;;;17.74;83.01;95992.77;1779314;80;21022;-64
2022/07/03 02:38:20;;;;;;;10.18;8.35;;;;;;;17.66;83.15;95989.05;1779472;81;20971;-65
2022/07/03 02:41:03;;;;;;;;;;;;;;;17.65;82.70;95991.80;1782055;81;21022;-65
2022/07/03 02:44:00;;;;;;;10.13;8.58;;;;;;;17.61;82.62;95989.70;1779474;80;20406;-65
2022/07/03 02:46:50;;;;;;;8.85;7.95;;;;;;;17.58;82.93;95990.30;1779072;81;21144;-65
2022/07/03 02:49:43;;;;;;;10.85;8.55;;;;;;;17.52;83.17;95988.75;1779352;80;21046;-65
2022/07/03 02:52:23;;;;;;;;;;;;;;;17.46;83.45;95989.88;1660257;86;21064;-65
2022/07/03 02:54:52;;;;;;;10.88;8.60;;;;;;;17.41;84.11;95989.63;1750864;81;20097;-65
2022/07/03 02:57:20;;;;;;;10.03;7.95;;;;;;;17.38;84.75;95993.28;1779357;80;21062;-65
2022/07/03 02:59:59;;;;;;;9.88;8.50;;;;;;;17.38;83.47;95993.28;1778991;81;20987;-65
2022/07/03 03:02:49;;;;;;;10.03;8.08;;;;;;;17.38;83.35;95995.95;1779652;81;21015;-65
2022/07/03 03:05:39;;;;;;;10.10;8.60;;;;;;;17.39;83.59;95993.70;1779187;81;21493;-65
2022/07/03 03:08:23;;;;;;;9.55;7.87;;;;;;;17.39;83.63;95991.51;1779388;81;21023;-65
2022/07/03 03:10:51;;;;;;;10.10;8.43;;;;;;;17.35;84.56;95992.07;1779336;81;21011;-65
2022/07/03 03:13:19;;;;;;;12.40;8.33;;;;;;;17.38;84.57;95991.95;1778848;81;21078;-65
2022/07/03 03:15:57;;;;;;;10.55;7.47;;;;;;;17.38;85.38;95989.75;1779180;81;21038;-65
2022/07/03 03:18:28;;;;;;;10.93;8.20;;;;;;;17.45;85.44;95989.92;1779082;81;21031;-65
2022/07/03 03:21:00;;;;;;;14.13;8.28;;;;;;;17.47;84.66;95985.40;1779343;80;20991;-65
2022/07/03 03:23:53;;;;;;;8.90;8.00;;;;;;;17.51;85.31;95991.00;1784823;80;21018;-65
2022/07/03 03:26:31;;;;;;;9.58;8.25;;;;;;;17.56;84.61;95994.35;1784473;80;21097;-65
2022/07/03 03:28:59;;;;;;;8.80;7.97;;;;;;;17.62;84.71;95992.80;1785069;80;21002;-65
2022/07/03 03:31:26;;;;;;;10.08;9.03;;;;;;;17.70;84.46;95995.16;1784826;80;21476;-65
2022/07/03 03:33:55;;;;;;;9.05;7.62;;;;;;;17.74;84.02;95990.97;1784573;80;21031;-65
2022/07/03 03:36:22;;;;;;;11.20;8.20;;;;;;;17.75;84.03;95998.50;1784823;80;21007;-65
2022/07/03 03:38:49;;;;;;;12.50;8.18;;;;;;;17.76;84.14;95993.55;1784882;80;20960;-65
2022/07/03 03:41:16;;;;;;;9.60;8.25;;;;;;;17.84;84.84;95996.84;1784945;80;20994;-65
2022/07/03 03:43:44;;;;;;;11.22;8.30;;;;;;;18.02;84.73;95999.22;1784824;80;21043;-65
2022/07/03 03:46:11;;;;;;;9.28;8.10;;;;;;;18.12;84.18;95989.89;1784967;80;21023;-65
2022/07/03 03:48:38;;;;;;;8.75;7.85;;;;;;;18.22;83.72;95993.05;1784612;80;21500;-64
2022/07/03 03:51:07;;;;;;;8.55;7.65;;;;;;;18.32;83.54;95986.81;1784944;80;21003;-65
2022/07/03 03:53:33;;;;;;;9.80;7.78;;;;;;;18.47;83.35;95987.96;1784984;80;20955;-65
2022/07/03 03:56:07;;;;;;;10.68;7.65;;;;;;;18.55;82.48;95984.51;1784792;80;21026;-65
2022/07/03 03:58:37;;;;;;;9.33;8.43;;;;;;;18.64;82.55;95981.89;1784878;80;20991;-65
2022/07/03 04:01:07;;;;;;;12.73;8.38;;;;;;;18.74;81.91;95980.54;1784947;80;20999;-64
2022/07/03 04:03:36;;;;;;;10.93;8.80;;;;;;;18.80;81.50;95993.69;1784681;80;20998;-65
2022/07/03 04:06:03;;;;;;;9.58;8.30;;;;;;;18.89;81.47;95989.23;1784955;80;21014;-65
2022/07/03 04:08:31;;;;;;;11.83;8.13;;;;;;;18.97;80.94;95987.55;1784662;80;21039;-65
2022/07/03 04:10:58;;;;;;;8.83;7.92;;;;;;;18.97;80.59;95988.89;1784892;80;21010;-65
2022/07/03 04:13:25;;;;;;;9.38;7.90;;;;;;;18.98;80.75;95986.16;1784533;80;21021;-65
2022/07/03 04:15:54;;;;;;;9.85;8.05;;;;;;;19.07;80.90;95978.64;1784580;80;21026;-65
2022/07/03 04:18:21;;;;;;;9.03;8.07;;;;;;;19.16;80.71;95984.92;1784758;80;21014;-64
2022/07/03 04:20:48;;;;;;;9.58;8.28;;;;;;;19.25;80.41;95987.15;1784662;80;21496;-64
2022/07/03 04:23:15;;;;;;;7.40;6.58;;;;;;;19.22;79.97;95984.63;1784469;80;21051;-65
2022/07/03 04:25:42;;;;;;;9.50;8.08;;;;;;;19.21;79.59;95989.11;1785069;80;21015;-65
2022/07/03 04:28:09;;;;;;;8.73;7.72;;;;;;;19.19;80.48;95984.30;1784921;80;20999;-65
2022/07/03 04:30:35;;;;;;;8.53;7.62;;;;;;;19.27;80.58;95981.27;1784661;80;20971;-65
2022/07/03 04:33:03;;;;;;;11.65;7.65;;;;;;;19.36;80.57;95980.84;1784931;80;20999;-65
2022/07/03 04:35:30;;;;;;;11.00;8.75;;;;;;;19.49;80.51;95982.94;1784402;80;21058;-65
2022/07/03 04:37:56;;;;;;;10.03;7.97;;;;;;;19.56;79.99;95987.07;1784729;80;20987;-65
2022/07/03 04:40:23;;;;;;;8.78;7.55;;;;;;;19.61;79.82;95981.88;1784922;80;21472;-65
2022/07/03 04:42:49;;;;;;;8.03;7.15;;;;;;;19.67;80.05;95980.27;1785156;80;20990;-65
2022/07/03 04:45:16;;;;;;;8.98;7.80;;;;;;;19.79;80.14;95980.16;1784793;80;21508;-65
2022/07/03 04:47:43;;;;;;;7.83;7.12;;;;;;;19.90;79.78;95976.94;1784938;80;21043;-65
2022/07/03 04:50:10;;;;;;;8.23;7.33;;;;;;;19.93;78.38;95975.44;1784813;80;21019;-65
2022/07/03 04:52:37;;;;;;;9.53;7.90;;;;;;;19.87;78.43;95974.42;1784620;80;21524;-65
2022/07/03 04:55:06;;;;;;;10.90;8.03;;;;;;;19.88;78.45;95971.68;1784929;80;21007;-65
2022/07/03 04:57:32;;;;;;;8.25;7.45;;;;;;;19.98;78.56;95973.88;1784705;80;21030;-65
2022/07/03 04:59:59;;;;;;;8.83;7.95;;;;;;;20.04;78.33;95967.76;1784913;80;21489;-65
2022/07/03 05:02:25;;;;;;;10.50;8.98;;;;;;;20.12;78.02;95968.71;1785012;80;21046;-65
2022/07/03 05:04:52;;;;;;;10.95;8.63;;;;;;;20.19;78.20;95970.14;1784802;80;21472;-65
2022/07/03 05:07:19;;;;;;;9.88;8.30;;;;;;;20.27;78.06;95963.05;1784951;80;20991;-65
2022/07/03 05:09:45;;;;;;;10.58;9.28;;;;;;;20.36;78.29;95963.04;1785014;80;21022;-65
2022/07/03 05:12:12;;;;;;;10.45;8.30;;;;;;;20.45;78.04;95967.94;1784650;80;21536;-65
2022/07/03 05:14:38;;;;;;;12.53;8.95;;;;;;;20.59;78.29;95964.55;1785089;80;20985;-65
2022/07/03 05:17:05;;;;;;;10.15;9.03;;;;;;;20.69;77.90;95967.18;1784774;80;21050;-65
2022/07/03 05:19:32;;;;;;;10.55;9.58;;;;;;;20.77;77.20;95966.30;1784874;80;21014;-65
2022/07/03 05:21:58;;;;;;;10.38;9.35;;;;;;;20.87;77.27;95966.67;1784005;80;21043;-65
2022/07/03 05:24:25;;;;;;;11.68;9.55;;;;;;;21.00;77.14;95964.20;1779773;80;21006;-65
2022/07/03 05:26:52;;;;;;;10.80;9.70;;;;;;;21.08;76.50;95965.98;1779408;81;21042;-65
2022/07/03 05:29:19;;;;;;;10.55;9.45;;;;;;;21.10;76.14;95968.98;1779611;81;21030;-65
2022/07/03 05:31:46;;;;;;;10.85;9.68;;;;;;;21.09;75.98;95966.36;1779216;81;21529;-65
2022/07/03 05:34:13;;;;;;;10.53;9.45;;;;;;;21.10;75.88;95967.64;1778928;81;21082;-65
2022/07/03 05:36:40;;;;;;;12.10;9.90;;;;;;;21.07;75.54;95974.52;1779535;81;21413;-65
2022/07/03 05:41:52;;;;;;;12.10;8.98;;;;;;;21.06;75.73;95975.93;1779327;81;21007;-65
2022/07/03 05:44:19;;;;;;;10.08;8.70;;;;;;;21.15;75.98;95974.95;1779138;81;21031;-65
2022/07/03 05:46:46;;;;;;;11.30;8.28;;;;;;;21.32;76.36;95971.84;1779267;80;21003;-65
2022/07/03 05:49:13;;;;;;;9.80;8.83;;;;;;;21.37;74.09;95970.63;1779300;81;21078;-65
2022/07/03 05:51:39;;;;;;;9.73;8.73;;;;;;;21.36;74.64;95973.39;1779388;81;21046;-65
2022/07/03 05:54:06;;;;;;;10.28;8.78;;;;;;;21.46;74.87;95973.78;1779551;81;21010;-65
2022/07/03 05:56:33;;;;;;;8.45;7.53;;;;;;;21.54;74.83;95971.05;1779375;81;20979;-65
2022/07/03 05:59:00;;;;;;;9.63;8.63;;;;;;;21.65;74.22;95970.95;1779392;81;21457;-65
2022/07/03 06:01:26;;;;;;;15.15;8.08;;;;;;;21.80;73.87;95976.31;1779187;81;21025;-65
2022/07/03 06:03:53;;;;;;;11.70;9.20;;;;;;;21.98;73.72;95974.87;1779354;81;21516;-64
2022/07/03 06:06:19;;;;;;;10.85;8.68;;;;;;;22.08;73.05;95968.48;1779353;80;21051;-65
2022/07/03 06:08:46;;;;;;;9.38;8.35;;;;;;;22.15;72.98;95967.14;1779112;81;21026;-65
2022/07/03 06:11:13;;;;;;;10.10;8.98;;;;;;;22.18;72.56;95962.96;1779476;81;21512;-65
2022/07/03 06:13:40;;;;;;;8.88;7.92;;;;;;;22.21;73.17;95962.80;1779360;81;21064;-65
2022/07/03 06:16:06;;;;;;;9.20;8.03;;;;;;;22.27;73.26;95961.09;1779109;81;21496;-65
2022/07/03 06:18:33;;;;;;;8.93;8.03;;;;;;;22.43;73.16;95963.27;1779724;81;20991;-65
2022/07/03 06:20:59;;;;;;;10.00;9.00;;;;;;;22.64;73.05;95960.24;1779410;81;21497;-65
2022/07/03 06:23:26;;;;;;;10.25;9.38;;;;;;;22.84;72.15;95961.23;1782821;80;21069;-65
2022/07/03 06:25:52;;;;;;;11.65;10.03;;;;;;;23.04;70.74;95960.52;1784756;80;21047;-65
2022/07/03 06:28:19;;;;;;;11.22;9.93;;;;;;;23.21;70.79;95957.64;1785006;80;21010;-65
2022/07/03 06:30:45;;;;;;;12.75;9.75;;;;;;;23.35;70.52;95952.72;1784830;80;21483;-65
2022/07/03 06:33:12;;;;;;;10.98;9.98;;;;;;;23.49;70.25;95947.33;1784973;80;21054;-65
2022/07/03 06:35:38;;;;;;;11.10;10.03;;;;;;;23.62;69.36;95949.23;1784711;80;21038;-65
2022/07/03 06:38:05;;;;;;;10.93;9.78;;;;;;;23.71;67.57;95953.55;1784991;80;20998;-65
2022/07/03 06:40:31;;;;;;;11.55;10.38;;;;;;;23.82;67.21;95947.97;1785091;80;21046;-65
2022/07/03 06:42:58;;;;;;;10.15;9.18;;;;;;;23.97;66.50;95942.91;1784196;80;21125;-65
2022/07/03 06:45:24;;;;;;;21.20;9.75;;;;;;;24.18;66.83;95944.65;1784989;80;20975;-65
2022/07/03 06:47:51;;;;;;;10.95;9.70;;;;;;;24.33;64.61;95938.22;1784841;80;21042;-65
2022/07/03 06:50:17;;;;;;;10.63;9.13;;;;;;;24.44;64.87;95935.27;1784363;80;21039;-65
2022/07/03 06:52:44;;;;;;;10.45;9.33;;;;;;;24.61;64.71;95929.63;1784971;80;20999;-65
2022/07/03 06:55:11;;;;;;;11.12;9.48;;;;;;;24.78;64.52;95933.36;1785007;80;21057;-65
2022/07/03 06:57:37;;;;;;;10.32;9.28;;;;;;;24.98;64.59;95936.02;1784841;80;21512;-65
2022/07/03 07:00:06;;;;;;;12.25;10.00;;;;;;;25.16;63.86;95935.69;1785081;80;21034;-65
2022/07/03 07:02:32;;;;;;;12.80;10.15;;;;;;;25.29;63.38;95932.52;1784892;80;21007;-65
2022/07/03 07:04:59;;;;;;;11.45;10.28;;;;;;;25.47;63.54;95935.23;1784665;80;20967;-65
2022/07/03 07:07:26;;;;;;;11.30;10.13;;;;;;;25.59;62.25;95929.43;1784625;80;21010;-65
2022/07/03 07:09:52;;;;;;;11.80;9.73;;;;;;;25.74;62.34;95928.80;1784941;80;20987;-65
2022/07/03 07:12:19;;;;;;;10.72;9.68;;;;;;;25.90;62.01;95924.03;1784967;80;21045;-65
2022/07/03 07:14:45;;;;;;;10.38;9.38;;;;;;;26.04;61.53;95920.28;1784991;80;20995;-65
2022/07/03 07:17:12;;;;;;;12.65;10.68;;;;;;;26.16;60.44;95920.32;1785084;80;21011;-65
2022/07/03 07:19:38;;;;;;;11.15;9.45;;;;;;;26.26;60.37;95916.83;1784751;80;21038;-65
2022/07/03 07:22:05;;;;;;;10.93;10.03;;;;;;;26.37;59.96;95914.64;1784613;80;21030;-65
2022/07/03 07:24:32;;;;;;;11.60;10.20;;;;;;;26.49;58.30;95916.91;1784934;80;21476;-65
2022/07/03 07:26:58;;;;;;;12.05;9.48;;;;;;;26.52;57.33;95924.32;1784820;80;20995;-65
2022/07/03 07:29:25;;;;;;;10.80;9.70;;;;;;;26.59;57.51;95918.45;1784924;80;21058;-65
2022/07/03 07:31:51;;;;;;;9.93;9.05;;;;;;;26.68;56.43;95913.16;1784846;80;21516;-65
2022/07/03 07:34:18;;;;;;;10.55;9.45;;;;;;;26.79;57.16;95916.88;1785164;80;21050;-65
2022/07/03 07:36:45;;;;;;;10.68;9.68;;;;;;;26.93;57.92;95909.40;1784545;80;21069;-65
2022/07/03 07:39:11;;;;;;;10.60;9.00;;;;;;;27.09;57.36;95907.72;1784412;80;21042;-65
2022/07/03 07:41:39;;;;;;;11.05;9.93;;;;;;;27.26;57.13;95908.23;1784587;80;21014;-65
2022/07/03 07:44:05;;;;;;;9.93;8.93;;;;;;;27.38;56.42;95910.81;1785058;80;20983;-66
2022/07/03 07:46:32;;;;;;;12.18;8.93;;;;;;;27.45;55.19;95907.63;1784694;80;21042;-66
2022/07/03 07:48:59;;;;;;;10.10;9.03;;;;;;;27.52;54.94;95907.50;1784818;80;21007;-65
2022/07/03 07:51:25;;;;;;;11.05;8.80;;;;;;;27.58;53.62;95900.21;1784822;80;21006;-65
2022/07/03 07:53:56;;;;;;;10.38;8.93;;;;;;;27.68;54.29;95902.53;1784756;80;21463;-66
2022/07/03 07:56:20;;;;;;;10.10;8.80;;;;;;;27.77;53.77;95898.19;1758847;80;21046;-65
2022/07/03 07:58:46;;;;;;;11.08;8.80;;;;;;;27.93;54.23;95896.48;1784984;80;21468;-65
2022/07/03 08:06:42;;;;;;;10.40;8.50;;;;;;;28.34;53.96;95904.34;1785002;80;21098;-65
2022/07/03 08:09:09;;;;;;;9.98;8.98;;;;;;;28.45;53.57;95901.13;1784873;80;21480;-65
2022/07/03 08:11:36;;;;;;;9.48;8.68;;;;;;;28.58;53.24;95905.52;1784698;80;21065;-65
2022/07/03 08:14:04;;;;;;;12.15;8.83;;;;;;;28.66;53.56;95910.64;1785064;80;21030;-66
2022/07/03 08:16:31;;;;;;;9.15;8.25;;;;;;;28.65;54.57;95914.83;1784914;80;21039;-66
2022/07/03 08:18:58;;;;;;;9.85;8.95;;;;;;;28.67;53.90;95910.13;1784949;80;20998;-65
2022/07/03 08:21:25;;;;;;;10.43;8.55;;;;;;;28.80;53.97;95909.43;1784627;80;21007;-65
2022/07/03 08:23:52;;;;;;;9.73;8.80;;;;;;;28.83;53.28;95916.48;1784619;80;21086;-66
2022/07/03 08:26:19;;;;;;;10.28;9.18;;;;;;;28.91;53.83;95910.73;1784550;80;21023;-65
2022/07/03 08:28:45;;;;;;;9.15;8.25;;;;;;;29.11;53.57;95912.25;1784841;80;20975;-66
2022/07/03 08:31:12;;;;;;;9.55;8.75;;;;;;;29.30;53.39;95915.05;1784923;80;21018;-65
2022/07/03 08:33:39;;;;;;;11.45;8.80;;;;;;;29.40;51.64;95913.73;1784774;80;21053;-65
2022/07/03 08:36:06;;;;;;;9.83;8.83;;;;;;;29.54;51.61;95913.38;1784347;80;20983;-65
2022/07/03 08:38:34;;;;;;;9.20;8.33;;;;;;;29.56;51.60;95910.53;1784835;80;20991;-65
2022/07/03 08:41:03;;;;;;;10.88;8.85;;;;;;;29.71;50.50;95916.45;1785236;80;21039;-65
2022/07/03 08:43:30;;;;;;;10.48;8.45;;;;;;;29.79;50.34;95920.72;1784651;80;21057;-65
2022/07/03 08:46:00;;;;;;;9.70;8.80;;;;;;;29.91;50.94;95903.77;1784864;80;21010;-65
2022/07/03 08:48:29;;;;;;;9.68;8.68;;;;;;;30.11;49.61;95904.66;1784861;80;21002;-65
2022/07/03 08:50:59;;;;;;;10.13;9.00;;;;;;;30.19;49.29;95904.34;1784548;80;21477;-65
2022/07/03 08:53:25;;;;;;;9.30;8.48;;;;;;;30.33;49.55;95908.52;1784983;80;20975;-65
2022/07/03 08:55:52;;;;;;;10.70;8.73;;;;;;;30.39;49.06;95912.52;1785043;80;21066;-65
2022/07/03 08:58:22;;;;;;;12.50;9.25;;;;;;;30.32;49.29;95908.68;1785015;80;21011;-65
2022/07/03 09:00:49;;;;;;;8.85;7.90;;;;;;;30.20;49.36;95915.56;1784972;80;21053;-65
2022/07/03 09:03:17;;;;;;;9.25;8.23;;;;;;;29.84;47.31;95906.20;1784716;80;21042;-65
2022/07/03 09:05:44;;;;;;;12.47;9.18;;;;;;;29.61;48.69;95913.70;1784779;80;21043;-65
2022/07/03 09:08:10;;;;;;;9.00;8.10;;;;;;;29.43;49.18;95913.95;1784856;80;21133;-65
2022/07/03 09:10:37;;;;;;;9.93;8.45;;;;;;;29.25;49.95;95913.73;1784857;80;21034;-65
2022/07/03 09:13:04;;;;;;;12.10;9.43;;;;;;;29.12;50.85;95916.17;1784815;80;21015;-65
2022/07/03 09:15:30;;;;;;;12.15;9.48;;;;;;;29.04;51.06;95916.46;1785070;80;21034;-65
2022/07/03 09:18:06;;;;;;;11.08;9.35;;;;;;;28.93;50.97;95909.26;1784987;80;21480;-65
2022/07/03 09:20:36;;;;;;;11.40;9.15;;;;;;;28.83;51.37;95912.41;1784816;80;21007;-65
2022/07/03 09:23:13;;;;;;;10.08;9.03;;;;;;;28.71;51.57;95914.32;1784893;80;21550;-65
2022/07/03 09:25:59;;;;;;;10.43;9.33;;;;;;;28.69;52.07;95909.52;1784993;80;21496;-65
2022/07/03 09:28:52;;;;;;;10.38;9.30;;;;;;;28.67;52.29;95912.84;1784959;80;21093;-65
2022/07/03 09:31:22;;;;;;;10.23;8.85;;;;;;;28.67;52.85;95910.98;1784854;80;21106;-65
2022/07/03 09:33:57;;;;;;;10.65;9.55;;;;;;;28.68;52.38;95903.23;1785022;80;21495;-65
2022/07/03 09:36:44;;;;;;;10.10;8.75;;;;;;;28.92;53.31;95907.52;1784936;80;21034;-65
2022/07/03 09:39:18;;;;;;;9.63;8.68;;;;;;;29.08;52.55;95908.42;1774730;80;21034;-65
2022/07/03 09:42:01;;;;;;;10.60;8.73;;;;;;;29.32;52.29;95902.19;1784958;80;20975;-65
2022/07/03 09:44:40;;;;;;;11.97;9.38;;;;;;;29.42;51.45;95905.45;1785178;80;20999;-65
2022/07/03 09:47:23;;;;;;;11.30;9.45;;;;;;;29.87;51.23;95895.04;1784590;80;21036;-65
2022/07/03 10:03:10;;;;;;;9.03;8.20;;;;;;;31.63;44.28;95882.99;1860044;77;22780;-64
2022/07/03 10:05:40;;;;;;;9.15;8.25;;;;;;;31.16;45.59;95883.51;1832490;78;21019;-64
2022/07/03 10:08:15;;;;;;;9.98;8.75;;;;;;;30.74;46.53;95884.70;1832248;78;21015;-64
2022/07/03 10:10:45;;;;;;;9.10;8.30;;;;;;;30.31;46.70;95871.05;1832321;78;21070;-64
2022/07/03 10:13:13;;;;;;;9.65;8.68;;;;;;;29.95;48.45;95875.30;1832210;78;21001;-64
2022/07/03 10:15:42;;;;;;;10.13;9.13;;;;;;;29.78;49.03;95884.98;1832142;78;21000;-64
2022/07/03 10:18:12;;;;;;;10.93;8.68;;;;;;;29.62;49.08;95878.69;1832245;78;20991;-64
2022/07/03 10:20:47;;;;;;;9.73;8.83;;;;;;;29.48;49.62;95885.86;1832419;78;21043;-64
2022/07/03 10:23:17;;;;;;;13.95;9.25;;;;;;;29.29;50.47;95880.72;1832241;78;20988;-64
2022/07/03 10:25:44;;;;;;;10.60;8.45;;;;;;;29.10;50.12;95881.98;1832470;78;21000;-64
2022/07/03 10:28:14;;;;;;;9.85;8.58;;;;;;;29.01;50.65;95877.34;1832329;78;20972;-64
2022/07/03 10:30:45;;;;;;;12.50;8.83;;;;;;;29.02;50.98;95881.77;1832132;78;21521;-64
2022/07/03 10:33:12;;;;;;;10.28;8.70;;;;;;;29.23;51.31;95876.31;1832614;78;21004;-64
2022/07/03 10:35:43;;;;;;;9.68;8.63;;;;;;;29.45;50.33;95879.35;1832117;78;21057;-64
2022/07/03 10:38:39;;;;;;;9.68;8.75;;;;;;;29.46;49.40;95866.99;1831152;78;21028;-64
2022/07/03 10:47:04;;;;;;;9.75;8.85;;;;;;;29.16;50.61;95856.15;1832402;78;20988;-64
2022/07/03 10:49:31;;;;;;;10.23;9.23;;;;;;;29.00;50.94;95859.30;1832186;78;21512;-64
2022/07/03 10:52:03;;;;;;;12.30;9.08;;;;;;;28.90;51.49;95861.49;1832664;78;21039;-64
2022/07/03 10:54:38;;;;;;;10.00;9.03;;;;;;;28.79;51.26;95857.98;1832410;78;21544;-64
2022/07/03 10:57:13;;;;;;;10.75;9.75;;;;;;;28.64;51.27;95865.61;1832104;78;21512;-64
2022/07/03 10:59:48;;;;;;;14.03;10.15;;;;;;;28.51;52.22;95873.09;1832318;78;21545;-64
2022/07/03 11:02:22;;;;;;;10.48;9.38;;;;;;;28.35;52.42;95865.34;1831754;78;21031;-64
2022/07/03 11:05:04;;;;;;;10.53;9.38;;;;;;;28.18;52.14;95855.45;1831243;78;21525;-64
2022/07/03 11:07:35;;;;;;;10.78;9.28;;;;;;;28.08;52.93;95849.59;1831969;78;20984;-64
2022/07/03 11:10:19;;;;;;;15.30;8.75;;;;;;;28.00;53.59;95855.66;1831763;78;21020;-64
2022/07/03 11:13:04;;;;;;;13.55;8.98;;;;;;;27.92;56.72;95859.48;1831371;78;21015;-64
2022/07/03 11:15:51;;;;;;;10.53;9.45;;;;;;;27.81;57.12;95857.64;1831792;78;21520;-64
2022/07/03 11:18:29;;;;;;;10.15;9.18;;;;;;;27.78;56.98;95855.20;1831214;78;21007;-64
2022/07/03 11:21:25;;;;;;;9.98;8.73;;;;;;;27.71;57.09;95856.69;1831929;78;21000;-64
2022/07/03 11:24:09;;;;;;;11.95;9.05;;;;;;;27.70;57.61;95850.41;1831501;78;21019;-64
2022/07/03 11:26:36;;;;;;;9.25;7.85;;;;;;;27.81;57.42;95846.80;1831690;78;21052;-64
2022/07/03 11:29:03;;;;;;;10.95;8.50;;;;;;;27.89;55.16;95855.18;1831860;78;21040;-64
2022/07/03 11:31:30;;;;;;;9.60;8.63;;;;;;;28.08;57.82;95849.09;1831566;78;21512;-65
2022/07/03 11:34:01;;;;;;;8.50;7.58;;;;;;;28.39;56.83;95859.53;1794307;78;21513;-64
2022/07/03 11:36:30;;;;;;;8.20;7.45;;;;;;;28.66;55.53;95851.41;1831805;78;21012;-64
2022/07/03 11:39:10;;;;;;;9.00;7.50;;;;;;;28.76;52.81;95850.97;1831582;78;21000;-64
2022/07/03 11:41:42;;;;;;;11.20;9.00;;;;;;;28.82;52.54;95853.13;1794513;78;20992;-64
2022/07/03 11:44:18;;;;;;;9.88;8.98;;;;;;;28.80;52.03;95851.55;1832072;78;21437;-64
2022/07/03 11:46:49;;;;;;;9.58;8.73;;;;;;;28.76;52.46;95856.91;1831581;78;20999;-64
2022/07/03 11:49:22;;;;;;;10.98;8.68;;;;;;;28.58;52.67;95869.72;1827098;78;21474;-64
2022/07/03 11:52:00;;;;;;;15.03;8.13;;;;;;;28.29;52.21;95866.73;1831763;78;21575;-64
2022/07/03 11:54:33;;;;;;;8.10;6.22;;;;;;;28.10;52.26;95870.17;1831763;78;21406;-64
2022/07/03 11:57:01;;;;;;;9.60;6.80;;;;;;;27.79;50.52;95871.31;1831785;78;21457;-64
2022/07/03 11:59:28;;;;;;;10.45;6.90;;;;;;;27.70;50.82;95865.83;1831877;78;21011;-64
2022/07/03 12:02:03;;;;;;;8.93;5.78;;;;;;;27.65;51.42;95872.98;1831538;78;21488;-64
2022/07/03 12:04:31;;;;;;;12.45;6.37;;;;;;;27.59;50.92;95878.88;1831796;78;20968;-64
2022/07/03 12:06:59;;;;;;;9.28;7.20;;;;;;;27.30;51.17;95882.63;1831271;78;21516;-64
2022/07/03 12:09:35;;;;;;;10.98;6.72;;;;;;;27.14;51.97;95873.00;1831786;78;21003;-64
2022/07/03 12:12:06;;;;;;;8.48;6.45;;;;;;;27.04;52.92;95878.78;1831402;78;21023;-63
2022/07/03 12:14:51;;;;;;;8.15;6.50;;;;;;;27.00;52.69;95875.08;1831510;78;21011;-64